FW5793 Weather Reports


Display with metric or nautical units.
time (UTC)temp
F
wind
direction
speed
MPH
gust
MPH
rain 1hr
in
rain 24hr
in
rain mn
in
humidity
%
barometer
mb
20240414073025 50 0 0.0 3.0 0.00 0.00 0.00 38 1017.8
20240414071526 51 160 0.0 3.0 0.00 0.00 0.00 36 1017.7
20240414070026 52 160 1.0 5.0 0.00 0.00 0.00 34 1017.8
20240414064527 54 160 1.0 8.0 0.00 0.00 0.00 32 1017.7
20240414063038 52 160 2.0 6.0 0.00 0.00 0.00 33 1017.6
20240414061531 53 0 0.0 4.0 0.00 0.00 0.00 34 1017.8
20240414060028 53 160 2.0 3.0 0.00 0.00 0.00 34 1017.8
20240414054525 53 160 0.0 5.0 0.00 0.00 0.00 35 1017.8
20240414053022 54 0 0.0 5.0 0.00 0.00 0.00 34 1018.0
20240414051527 54 0 2.0 10.0 0.00 0.00 0.00 33 1017.8
20240414050024 55 0 1.0 4.0 0.00 0.00 0.00 31 1017.7
20240414044524 56 0 0.0 2.0 0.00 0.00 0.00 30 1017.6
20240414043025 57 0 0.0 5.0 0.00 0.00 0.00 29 1017.5
20240414041522 58 0 0.0 3.0 0.00 0.00 0.00 29 1017.6
20240414040028 58 0 1.0 3.0 0.00 0.00 0.00 28 1017.3
20240414034524 59 160 1.0 3.0 0.00 0.00 0.00 27 1017.2
20240414033021 60 160 1.0 3.0 0.00 0.00 0.00 27 1017.1
20240414031525 61 160 0.0 3.0 0.00 0.00 0.00 26 1017.1
20240414030026 61 160 2.0 4.0 0.00 0.00 0.00 25 1017.0
20240414024525 62 0 2.0 4.0 0.00 0.00 0.00 25 1016.7
20240414023032 63 0 0.0 3.0 0.00 0.00 0.00 25 1016.5
20240414021524 64 160 2.0 5.0 0.00 0.00 0.00 23 1016.5
20240414020024 66 160 0.0 2.0 0.00 0.00 0.00 22 1016.2
20240414014527 67 0 0.0 2.0 0.00 0.00 0.00 21 1016.1
20240414013023 68 0 0.0 2.0 0.00 0.00 0.00 20 1015.9
20240414011524 69 0 0.0 3.0 0.00 0.00 0.00 19 1015.9
20240414010037 70 160 0.0 2.0 0.00 0.00 0.00 17 1015.7
20240414004525 70 0 0.0 2.0 0.00 0.00 0.00 16 1015.7
20240414003025 72 0 0.0 4.0 0.00 0.00 0.00 15 1015.7
20240414001523 73 160 1.0 4.0 0.00 0.00 0.00 14 1015.7
20240414000027 74 160 1.0 6.0 0.00 0.00 0.00 14 1015.7
20240413234525 76 0 0.0 3.0 0.00 0.00 0.00 14 1015.5
20240413233026 75 160 1.0 6.0 0.00 0.00 0.00 14 1015.5
20240413231523 75 160 0.0 6.0 0.00 0.00 0.00 15 1015.5
20240413230033 73 160 1.0 6.0 0.00 0.00 0.00 15 1015.6
20240413224526 74 160 3.0 11.0 0.00 0.00 0.00 14 1015.5
20240413223030 74 160 3.0 8.0 0.00 0.00 0.00 16 1015.5
20240413221523 72 160 4.0 8.0 0.00 0.00 0.00 17 1015.5
20240413220034 73 160 3.0 9.0 0.00 0.00 0.00 15 1015.5
20240413214526 74 160 4.0 10.0 0.00 0.00 0.00 15 1015.5
20240413213028 72 160 7.0 19.0 0.00 0.00 0.00 16 1015.9
20240413211524 74 160 3.0 8.0 0.00 0.00 0.00 15 1015.7
20240413210025 75 160 5.0 14.0 0.00 0.00 0.00 17 1015.8
20240413204525 76 160 5.0 10.0 0.00 0.00 0.00 16 1015.9
20240413203024 75 160 3.0 11.0 0.00 0.00 0.00 17 1016.0
20240413201523 77 160 4.0 9.0 0.00 0.00 0.00 13 1015.9
20240413200025 74 160 1.0 6.0 0.00 0.00 0.00 15 1016.0
20240413194524 73 0 0.0 8.0 0.00 0.00 0.00 17 1015.9
20240413193026 72 160 3.0 10.0 0.00 0.00 0.00 16 1015.9
20240413191528 73 160 4.0 11.0 0.00 0.00 0.00 16 1015.9
20240413190027 74 0 0.0 8.0 0.00 0.00 0.00 15 1015.9
20240413184531 76 160 2.0 11.0 0.00 0.00 0.00 15 1016.0
20240413183024 78 160 5.0 10.0 0.00 0.00 0.00 15 1015.8
20240413181526 77 160 4.0 10.0 0.00 0.00 0.00 13 1016.0
20240413180026 76 160 2.0 6.0 0.00 0.00 0.00 13 1016.1
20240413174529 76 160 2.0 11.0 0.00 0.00 0.00 15 1016.3
20240413173021 73 0 2.0 6.0 0.00 0.00 0.00 14 1016.3
20240413171525 71 160 2.0 13.0 0.00 0.00 0.00 15 1016.4
20240413170025 74 160 5.0 11.0 0.00 0.00 0.00 14 1016.5
20240413164534 74 160 6.0 13.0 0.00 0.00 0.00 16 1016.4
20240413163029 75 160 4.0 12.0 0.00 0.00 0.00 16 1016.3
20240413161526 74 160 3.0 11.0 0.00 0.00 0.00 17 1016.3
20240413160028 72 160 4.0 13.0 0.00 0.00 0.00 17 1016.2
20240413154527 71 160 4.0 12.0 0.00 0.00 0.00 18 1016.2
20240413153025 70 160 4.0 16.0 0.00 0.00 0.00 18 1016.2
20240413151532 68 160 5.0 14.0 0.00 0.00 0.00 19 1016.1
20240413150038 66 160 4.0 13.0 0.00 0.00 0.00 21 1016.1
20240413144532 64 160 3.0 13.0 0.00 0.00 0.00 22 1016.1
20240413143026 63 160 4.0 16.0 0.00 0.00 0.00 23 1016.3
20240413141527 61 160 3.0 18.0 0.00 0.00 0.00 24 1016.4
20240413140026 59 0 0.0 13.0 0.00 0.00 0.00 27 1016.5
20240413134524 59 160 7.0 16.0 0.00 0.00 0.00 25 1016.3
20240413133027 58 160 3.0 11.0 0.00 0.00 0.00 28 1016.3
20240413131525 58 160 2.0 14.0 0.00 0.00 0.00 28 1016.2
20240413130042 58 160 2.0 9.0 0.00 0.00 0.00 28 1016.3
20240413124524 58 160 2.0 6.0 0.00 0.00 0.00 29 1016.3
20240413123025 58 160 6.0 15.0 0.00 0.00 0.00 28 1016.3
20240413121529 58 160 2.0 8.0 0.00 0.00 0.00 29 1016.2
20240413120025 58 160 1.0 6.0 0.00 0.00 0.00 28 1016.3
20240413114538 58 0 3.0 14.0 0.00 0.00 0.00 28 1016.0
20240413113025 59 160 4.0 12.0 0.00 0.00 0.00 29 1015.9
20240413111524 59 160 6.0 15.0 0.00 0.00 0.00 28 1016.1
20240413110031 60 160 6.0 15.0 0.00 0.00 0.00 28 1016.0
20240413104521 60 160 10.0 21.0 0.00 0.00 0.00 28 1015.7
20240413103024 60 160 8.0 19.0 0.00 0.00 0.00 28 1015.8
20240413101529 60 160 6.0 17.0 0.00 0.00 0.00 29 1015.9
20240413100026 60 160 7.0 15.0 0.00 0.00 0.00 30 1015.9
20240413094525 60 160 5.0 17.0 0.00 0.00 0.00 28 1016.2
20240413093040 60 160 5.0 13.0 0.00 0.00 0.00 25 1016.4
20240413091523 60 160 2.0 13.0 0.00 0.00 0.00 24 1016.5
20240413090024 59 160 3.0 8.0 0.00 0.00 0.00 23 1016.4
20240413084525 60 160 3.0 12.0 0.00 0.00 0.00 22 1016.4
20240413083026 60 160 4.0 10.0 0.00 0.00 0.00 21 1016.3
20240413081522 58 160 4.0 9.0 0.00 0.00 0.00 23 1016.2
20240413080026 55 160 3.0 6.0 0.00 0.00 0.00 27 1016.1
20240413074525 53 0 0.0 2.0 0.00 0.00 0.00 29 1016.1